sensor_id;sensor_type;location;lat;lon;timestamp;P1;durP1;ratioP1;P2;durP2;ratioP2
61471;SDS011;47337;54.068;12.114;2024-03-02T00:02:34;81.28;;;30.75;;
61471;SDS011;47337;54.068;12.114;2024-03-02T00:04:59;83.45;;;32.25;;
61471;SDS011;47337;54.068;12.114;2024-03-02T00:07:26;80.65;;;30.58;;
61471;SDS011;47337;54.068;12.114;2024-03-02T00:09:53;78.70;;;30.08;;
61471;SDS011;47337;54.068;12.114;2024-03-02T00:12:18;79.65;;;31.38;;
61471;SDS011;47337;54.068;12.114;2024-03-02T00:14:45;78.97;;;31.77;;
61471;SDS011;47337;54.068;12.114;2024-03-02T00:17:15;83.65;;;32.67;;
61471;SDS011;47337;54.068;12.114;2024-03-02T00:19:44;81.78;;;31.55;;
61471;SDS011;47337;54.068;12.114;2024-03-02T00:22:11;80.43;;;32.38;;
61471;SDS011;47337;54.068;12.114;2024-03-02T00:24:36;89.05;;;33.55;;
61471;SDS011;47337;54.068;12.114;2024-03-02T00:27:03;79.03;;;31.42;;
61471;SDS011;47337;54.068;12.114;2024-03-02T00:29:29;83.65;;;31.55;;
61471;SDS011;47337;54.068;12.114;2024-03-02T00:31:54;83.03;;;32.95;;
61471;SDS011;47337;54.068;12.114;2024-03-02T00:34:20;82.68;;;32.80;;
61471;SDS011;47337;54.068;12.114;2024-03-02T00:36:46;92.18;;;34.08;;
61471;SDS011;47337;54.068;12.114;2024-03-02T00:39:12;90.72;;;33.17;;
61471;SDS011;47337;54.068;12.114;2024-03-02T00:41:38;86.47;;;34.10;;
61471;SDS011;47337;54.068;12.114;2024-03-02T00:44:15;89.90;;;33.50;;
61471;SDS011;47337;54.068;12.114;2024-03-02T00:46:41;81.97;;;32.15;;
61471;SDS011;47337;54.068;12.114;2024-03-02T00:51:40;83.50;;;33.33;;
61471;SDS011;47337;54.068;12.114;2024-03-02T00:54:07;84.75;;;33.70;;
61471;SDS011;47337;54.068;12.114;2024-03-02T00:56:35;91.00;;;34.10;;
61471;SDS011;47337;54.068;12.114;2024-03-02T00:59:00;97.03;;;37.25;;
61471;SDS011;47337;54.068;12.114;2024-03-02T01:01:31;91.28;;;34.60;;
61471;SDS011;47337;54.068;12.114;2024-03-02T01:03:56;89.53;;;33.80;;
61471;SDS011;47337;54.068;12.114;2024-03-02T01:06:21;89.10;;;33.85;;
61471;SDS011;47337;54.068;12.114;2024-03-02T01:08:47;92.55;;;34.78;;
61471;SDS011;47337;54.068;12.114;2024-03-02T01:11:16;92.75;;;34.35;;
61471;SDS011;47337;54.068;12.114;2024-03-02T01:13:43;96.82;;;37.10;;
61471;SDS011;47337;54.068;12.114;2024-03-02T01:16:09;98.95;;;37.17;;
61471;SDS011;47337;54.068;12.114;2024-03-02T01:18:34;105.13;;;36.00;;
61471;SDS011;47337;54.068;12.114;2024-03-02T01:20:59;111.63;;;36.10;;
61471;SDS011;47337;54.068;12.114;2024-03-02T01:23:25;99.00;;;35.45;;
61471;SDS011;47337;54.068;12.114;2024-03-02T01:25:50;102.45;;;35.97;;
61471;SDS011;47337;54.068;12.114;2024-03-02T01:28:16;98.75;;;36.85;;
61471;SDS011;47337;54.068;12.114;2024-03-02T01:30:42;102.97;;;35.45;;
61471;SDS011;47337;54.068;12.114;2024-03-02T01:33:07;100.97;;;37.10;;
61471;SDS011;47337;54.068;12.114;2024-03-02T01:35:35;102.47;;;36.45;;
61471;SDS011;47337;54.068;12.114;2024-03-02T01:38:00;103.00;;;37.03;;
61471;SDS011;47337;54.068;12.114;2024-03-02T01:40:25;90.45;;;35.35;;
61471;SDS011;47337;54.068;12.114;2024-03-02T01:42:51;97.10;;;35.92;;
61471;SDS011;47337;54.068;12.114;2024-03-02T01:45:17;100.18;;;37.30;;
61471;SDS011;47337;54.068;12.114;2024-03-02T01:47:42;92.72;;;38.22;;
61471;SDS011;47337;54.068;12.114;2024-03-02T01:50:07;95.68;;;35.40;;
61471;SDS011;47337;54.068;12.114;2024-03-02T01:52:33;88.10;;;35.75;;
61471;SDS011;47337;54.068;12.114;2024-03-02T01:54:58;101.72;;;36.65;;
61471;SDS011;47337;54.068;12.114;2024-03-02T01:57:26;94.25;;;35.22;;
61471;SDS011;47337;54.068;12.114;2024-03-02T01:59:51;98.22;;;37.60;;
61471;SDS011;47337;54.068;12.114;2024-03-02T02:02:17;95.88;;;36.17;;
61471;SDS011;47337;54.068;12.114;2024-03-02T02:04:43;96.40;;;35.05;;
61471;SDS011;47337;54.068;12.114;2024-03-02T02:07:11;99.55;;;36.92;;
61471;SDS011;47337;54.068;12.114;2024-03-02T02:09:36;93.38;;;34.00;;
61471;SDS011;47337;54.068;12.114;2024-03-02T02:12:01;103.82;;;36.47;;
61471;SDS011;47337;54.068;12.114;2024-03-02T02:14:27;101.25;;;37.40;;
61471;SDS011;47337;54.068;12.114;2024-03-02T02:16:53;97.25;;;35.40;;
61471;SDS011;47337;54.068;12.114;2024-03-02T02:19:21;102.47;;;36.28;;
61471;SDS011;47337;54.068;12.114;2024-03-02T02:21:46;97.88;;;38.33;;
61471;SDS011;47337;54.068;12.114;2024-03-02T02:24:11;101.82;;;36.17;;
61471;SDS011;47337;54.068;12.114;2024-03-02T02:26:38;97.97;;;36.60;;
61471;SDS011;47337;54.068;12.114;2024-03-02T02:29:03;103.97;;;36.67;;
61471;SDS011;47337;54.068;12.114;2024-03-02T02:31:36;110.20;;;38.67;;
61471;SDS011;47337;54.068;12.114;2024-03-02T02:34:01;103.93;;;36.25;;
61471;SDS011;47337;54.068;12.114;2024-03-02T02:36:26;97.63;;;36.22;;
61471;SDS011;47337;54.068;12.114;2024-03-02T02:38:52;98.75;;;36.30;;
61471;SDS011;47337;54.068;12.114;2024-03-02T02:41:17;102.15;;;36.97;;
61471;SDS011;47337;54.068;12.114;2024-03-02T02:43:42;104.03;;;35.85;;
61471;SDS011;47337;54.068;12.114;2024-03-02T02:46:08;116.30;;;38.47;;
61471;SDS011;47337;54.068;12.114;2024-03-02T02:48:33;99.07;;;36.53;;
61471;SDS011;47337;54.068;12.114;2024-03-02T02:50:58;95.32;;;36.08;;
61471;SDS011;47337;54.068;12.114;2024-03-02T02:53:24;97.35;;;37.50;;
61471;SDS011;47337;54.068;12.114;2024-03-02T02:55:49;102.25;;;36.90;;
61471;SDS011;47337;54.068;12.114;2024-03-02T02:58:14;110.00;;;38.28;;
61471;SDS011;47337;54.068;12.114;2024-03-02T03:00:39;98.80;;;37.15;;
61471;SDS011;47337;54.068;12.114;2024-03-02T03:03:05;95.45;;;36.42;;
61471;SDS011;47337;54.068;12.114;2024-03-02T03:05:30;100.03;;;37.92;;
61471;SDS011;47337;54.068;12.114;2024-03-02T03:07:55;103.28;;;37.72;;
61471;SDS011;47337;54.068;12.114;2024-03-02T03:10:21;103.45;;;37.63;;
61471;SDS011;47337;54.068;12.114;2024-03-02T03:12:48;95.40;;;37.45;;
61471;SDS011;47337;54.068;12.114;2024-03-02T03:15:16;98.00;;;39.58;;
61471;SDS011;47337;54.068;12.114;2024-03-02T03:17:41;106.78;;;39.08;;
61471;SDS011;47337;54.068;12.114;2024-03-02T03:20:07;114.30;;;39.47;;
61471;SDS011;47337;54.068;12.114;2024-03-02T03:22:35;95.07;;;39.63;;
61471;SDS011;47337;54.068;12.114;2024-03-02T03:25:00;99.47;;;37.33;;
61471;SDS011;47337;54.068;12.114;2024-03-02T03:27:28;102.93;;;38.13;;
61471;SDS011;47337;54.068;12.114;2024-03-02T03:29:53;104.32;;;39.08;;
61471;SDS011;47337;54.068;12.114;2024-03-02T03:32:21;101.13;;;37.03;;
61471;SDS011;47337;54.068;12.114;2024-03-02T03:34:47;104.07;;;39.35;;
61471;SDS011;47337;54.068;12.114;2024-03-02T03:37:13;99.75;;;37.47;;
61471;SDS011;47337;54.068;12.114;2024-03-02T03:39:38;102.05;;;38.20;;
61471;SDS011;47337;54.068;12.114;2024-03-02T03:42:06;101.78;;;37.13;;
61471;SDS011;47337;54.068;12.114;2024-03-02T03:44:31;110.22;;;37.83;;
61471;SDS011;47337;54.068;12.114;2024-03-02T03:46:57;107.40;;;38.75;;
61471;SDS011;47337;54.068;12.114;2024-03-02T03:49:22;100.45;;;37.00;;
61471;SDS011;47337;54.068;12.114;2024-03-02T03:51:47;105.03;;;39.38;;
61471;SDS011;47337;54.068;12.114;2024-03-02T03:54:15;105.45;;;38.88;;
61471;SDS011;47337;54.068;12.114;2024-03-02T03:56:40;109.72;;;39.40;;
61471;SDS011;47337;54.068;12.114;2024-03-02T03:59:05;110.45;;;40.67;;
61471;SDS011;47337;54.068;12.114;2024-03-02T04:01:33;106.28;;;37.88;;
61471;SDS011;47337;54.068;12.114;2024-03-02T04:03:58;95.35;;;38.67;;
61471;SDS011;47337;54.068;12.114;2024-03-02T04:06:24;106.82;;;36.72;;
61471;SDS011;47337;54.068;12.114;2024-03-02T04:08:49;106.65;;;38.90;;
61471;SDS011;47337;54.068;12.114;2024-03-02T04:11:14;101.63;;;38.50;;
61471;SDS011;47337;54.068;12.114;2024-03-02T04:13:42;98.85;;;37.35;;
61471;SDS011;47337;54.068;12.114;2024-03-02T04:16:07;93.47;;;37.10;;
61471;SDS011;47337;54.068;12.114;2024-03-02T04:18:32;98.53;;;38.60;;
61471;SDS011;47337;54.068;12.114;2024-03-02T04:20:58;108.95;;;39.50;;
61471;SDS011;47337;54.068;12.114;2024-03-02T04:23:26;104.75;;;37.38;;
61471;SDS011;47337;54.068;12.114;2024-03-02T04:25:51;103.43;;;38.60;;
61471;SDS011;47337;54.068;12.114;2024-03-02T04:28:17;110.38;;;39.17;;
61471;SDS011;47337;54.068;12.114;2024-03-02T04:30:42;95.32;;;38.97;;
61471;SDS011;47337;54.068;12.114;2024-03-02T04:33:09;97.45;;;36.35;;
61471;SDS011;47337;54.068;12.114;2024-03-02T04:35:35;96.57;;;36.45;;
61471;SDS011;47337;54.068;12.114;2024-03-02T04:38:03;97.80;;;37.92;;
61471;SDS011;47337;54.068;12.114;2024-03-02T04:40:28;101.80;;;37.38;;
61471;SDS011;47337;54.068;12.114;2024-03-02T04:42:54;91.70;;;37.47;;
61471;SDS011;47337;54.068;12.114;2024-03-02T04:45:19;90.28;;;36.42;;
61471;SDS011;47337;54.068;12.114;2024-03-02T04:47:44;94.10;;;36.03;;
61471;SDS011;47337;54.068;12.114;2024-03-02T04:50:09;96.68;;;37.03;;
61471;SDS011;47337;54.068;12.114;2024-03-02T04:52:35;104.72;;;39.33;;
61471;SDS011;47337;54.068;12.114;2024-03-02T04:55:03;90.60;;;37.03;;
61471;SDS011;47337;54.068;12.114;2024-03-02T04:57:41;97.60;;;37.20;;
61471;SDS011;47337;54.068;12.114;2024-03-02T05:00:07;85.90;;;35.05;;
61471;SDS011;47337;54.068;12.114;2024-03-02T05:02:33;92.30;;;35.83;;
61471;SDS011;47337;54.068;12.114;2024-03-02T05:04:59;98.07;;;36.10;;
61471;SDS011;47337;54.068;12.114;2024-03-02T05:07:24;97.15;;;36.75;;
61471;SDS011;47337;54.068;12.114;2024-03-02T05:09:49;96.60;;;35.78;;
61471;SDS011;47337;54.068;12.114;2024-03-02T05:12:14;96.38;;;37.00;;
61471;SDS011;47337;54.068;12.114;2024-03-02T05:14:58;102.00;;;38.40;;
61471;SDS011;47337;54.068;12.114;2024-03-02T05:17:23;93.05;;;36.10;;
61471;SDS011;47337;54.068;12.114;2024-03-02T05:19:49;97.10;;;37.15;;
61471;SDS011;47337;54.068;12.114;2024-03-02T05:22:14;105.63;;;38.15;;
61471;SDS011;47337;54.068;12.114;2024-03-02T05:24:39;100.60;;;37.38;;
61471;SDS011;47337;54.068;12.114;2024-03-02T05:27:06;95.97;;;35.70;;
61471;SDS011;47337;54.068;12.114;2024-03-02T05:29:32;91.40;;;37.70;;
61471;SDS011;47337;54.068;12.114;2024-03-02T05:31:57;96.55;;;38.30;;
61471;SDS011;47337;54.068;12.114;2024-03-02T05:34:22;93.50;;;37.10;;
61471;SDS011;47337;54.068;12.114;2024-03-02T05:36:48;85.38;;;35.05;;
61471;SDS011;47337;54.068;12.114;2024-03-02T05:39:13;93.13;;;37.70;;
61471;SDS011;47337;54.068;12.114;2024-03-02T05:41:38;92.38;;;36.83;;
61471;SDS011;47337;54.068;12.114;2024-03-02T05:44:04;90.35;;;34.67;;
61471;SDS011;47337;54.068;12.114;2024-03-02T05:46:29;94.82;;;35.88;;
61471;SDS011;47337;54.068;12.114;2024-03-02T05:48:54;90.57;;;34.47;;
61471;SDS011;47337;54.068;12.114;2024-03-02T05:51:20;87.30;;;36.25;;
61471;SDS011;47337;54.068;12.114;2024-03-02T05:53:45;89.65;;;34.13;;
61471;SDS011;47337;54.068;12.114;2024-03-02T05:56:10;88.28;;;34.03;;
61471;SDS011;47337;54.068;12.114;2024-03-02T05:58:37;84.95;;;33.50;;
61471;SDS011;47337;54.068;12.114;2024-03-02T06:01:20;77.65;;;33.75;;
61471;SDS011;47337;54.068;12.114;2024-03-02T06:03:47;85.82;;;33.92;;
61471;SDS011;47337;54.068;12.114;2024-03-02T06:06:12;79.57;;;34.40;;
61471;SDS011;47337;54.068;12.114;2024-03-02T06:08:38;88.53;;;35.10;;
61471;SDS011;47337;54.068;12.114;2024-03-02T06:11:03;82.18;;;33.25;;
61471;SDS011;47337;54.068;12.114;2024-03-02T06:13:28;84.60;;;32.25;;
61471;SDS011;47337;54.068;12.114;2024-03-02T06:15:53;85.13;;;34.35;;
61471;SDS011;47337;54.068;12.114;2024-03-02T06:18:19;75.82;;;31.80;;
61471;SDS011;47337;54.068;12.114;2024-03-02T06:20:44;84.82;;;32.30;;
61471;SDS011;47337;54.068;12.114;2024-03-02T06:23:09;79.03;;;31.58;;
61471;SDS011;47337;54.068;12.114;2024-03-02T06:25:35;78.50;;;32.83;;
61471;SDS011;47337;54.068;12.114;2024-03-02T06:28:00;78.75;;;31.85;;
61471;SDS011;47337;54.068;12.114;2024-03-02T06:30:25;77.78;;;32.35;;
61471;SDS011;47337;54.068;12.114;2024-03-02T06:32:51;75.97;;;31.15;;
61471;SDS011;47337;54.068;12.114;2024-03-02T06:35:16;85.47;;;30.98;;
61471;SDS011;47337;54.068;12.114;2024-03-02T06:37:41;67.18;;;29.75;;
61471;SDS011;47337;54.068;12.114;2024-03-02T06:40:07;73.97;;;30.05;;
61471;SDS011;47337;54.068;12.114;2024-03-02T06:42:35;76.30;;;30.67;;
61471;SDS011;47337;54.068;12.114;2024-03-02T06:45:03;73.53;;;28.90;;
61471;SDS011;47337;54.068;12.114;2024-03-02T06:47:28;73.80;;;29.98;;
61471;SDS011;47337;54.068;12.114;2024-03-02T06:49:53;74.88;;;28.45;;
61471;SDS011;47337;54.068;12.114;2024-03-02T06:52:19;69.47;;;27.05;;
61471;SDS011;47337;54.068;12.114;2024-03-02T06:54:45;65.40;;;27.90;;
61471;SDS011;47337;54.068;12.114;2024-03-02T06:57:10;78.78;;;28.90;;
61471;SDS011;47337;54.068;12.114;2024-03-02T06:59:36;67.40;;;28.33;;
61471;SDS011;47337;54.068;12.114;2024-03-02T07:02:01;65.15;;;26.25;;
61471;SDS011;47337;54.068;12.114;2024-03-02T07:04:27;64.82;;;26.77;;
61471;SDS011;47337;54.068;12.114;2024-03-02T07:06:54;69.15;;;28.60;;
61471;SDS011;47337;54.068;12.114;2024-03-02T07:09:20;62.13;;;26.85;;
61471;SDS011;47337;54.068;12.114;2024-03-02T07:11:47;70.97;;;28.23;;
61471;SDS011;47337;54.068;12.114;2024-03-02T07:14:13;60.42;;;28.60;;
61471;SDS011;47337;54.068;12.114;2024-03-02T07:16:38;63.75;;;28.55;;
61471;SDS011;47337;54.068;12.114;2024-03-02T07:19:05;63.10;;;27.38;;
61471;SDS011;47337;54.068;12.114;2024-03-02T07:21:31;70.80;;;27.15;;
61471;SDS011;47337;54.068;12.114;2024-03-02T07:23:57;70.30;;;29.38;;
61471;SDS011;47337;54.068;12.114;2024-03-02T07:26:23;69.07;;;28.23;;
61471;SDS011;47337;54.068;12.114;2024-03-02T07:28:48;68.22;;;27.55;;
61471;SDS011;47337;54.068;12.114;2024-03-02T07:31:14;58.67;;;27.02;;
61471;SDS011;47337;54.068;12.114;2024-03-02T07:33:39;64.20;;;27.10;;
61471;SDS011;47337;54.068;12.114;2024-03-02T07:36:04;75.28;;;28.52;;
61471;SDS011;47337;54.068;12.114;2024-03-02T07:38:30;70.82;;;29.23;;
61471;SDS011;47337;54.068;12.114;2024-03-02T07:40:56;66.65;;;28.73;;
61471;SDS011;47337;54.068;12.114;2024-03-02T07:43:23;69.18;;;28.08;;
61471;SDS011;47337;54.068;12.114;2024-03-02T07:45:49;72.18;;;28.95;;
61471;SDS011;47337;54.068;12.114;2024-03-02T07:48:14;66.13;;;27.63;;
61471;SDS011;47337;54.068;12.114;2024-03-02T07:50:40;66.93;;;28.35;;
61471;SDS011;47337;54.068;12.114;2024-03-02T07:53:05;62.17;;;28.50;;
61471;SDS011;47337;54.068;12.114;2024-03-02T07:55:33;65.28;;;27.60;;
61471;SDS011;47337;54.068;12.114;2024-03-02T07:57:59;66.85;;;28.88;;
61471;SDS011;47337;54.068;12.114;2024-03-02T08:00:27;72.70;;;30.15;;
61471;SDS011;47337;54.068;12.114;2024-03-02T08:02:53;65.53;;;27.88;;
61471;SDS011;47337;54.068;12.114;2024-03-02T08:05:19;66.90;;;29.27;;
61471;SDS011;47337;54.068;12.114;2024-03-02T08:07:44;71.55;;;28.48;;
61471;SDS011;47337;54.068;12.114;2024-03-02T08:10:10;66.00;;;28.70;;
61471;SDS011;47337;54.068;12.114;2024-03-02T08:12:35;65.32;;;26.17;;
61471;SDS011;47337;54.068;12.114;2024-03-02T08:15:00;69.15;;;28.90;;
61471;SDS011;47337;54.068;12.114;2024-03-02T08:17:26;64.65;;;26.60;;
61471;SDS011;47337;54.068;12.114;2024-03-02T08:19:51;70.78;;;28.90;;
61471;SDS011;47337;54.068;12.114;2024-03-02T08:22:16;61.08;;;26.77;;
61471;SDS011;47337;54.068;12.114;2024-03-02T08:24:42;69.25;;;28.15;;
61471;SDS011;47337;54.068;12.114;2024-03-02T08:27:09;61.25;;;26.88;;
61471;SDS011;47337;54.068;12.114;2024-03-02T08:29:35;61.30;;;28.23;;
61471;SDS011;47337;54.068;12.114;2024-03-02T08:32:02;65.32;;;27.60;;
61471;SDS011;47337;54.068;12.114;2024-03-02T08:34:27;57.10;;;27.25;;
61471;SDS011;47337;54.068;12.114;2024-03-02T08:36:52;62.20;;;26.80;;
61471;SDS011;47337;54.068;12.114;2024-03-02T08:39:18;62.65;;;27.45;;
61471;SDS011;47337;54.068;12.114;2024-03-02T08:41:46;59.03;;;26.27;;
61471;SDS011;47337;54.068;12.114;2024-03-02T08:44:14;63.30;;;27.95;;
61471;SDS011;47337;54.068;12.114;2024-03-02T08:46:40;60.00;;;25.90;;
61471;SDS011;47337;54.068;12.114;2024-03-02T08:49:08;62.42;;;28.83;;
61471;SDS011;47337;54.068;12.114;2024-03-02T08:51:34;57.63;;;26.77;;
61471;SDS011;47337;54.068;12.114;2024-03-02T08:53:59;65.97;;;28.02;;
61471;SDS011;47337;54.068;12.114;2024-03-02T08:56:24;61.17;;;27.67;;
61471;SDS011;47337;54.068;12.114;2024-03-02T08:58:50;54.78;;;25.55;;
61471;SDS011;47337;54.068;12.114;2024-03-02T09:01:16;61.15;;;26.60;;
61471;SDS011;47337;54.068;12.114;2024-03-02T09:03:41;56.33;;;25.17;;
61471;SDS011;47337;54.068;12.114;2024-03-02T09:06:09;54.30;;;25.00;;
61471;SDS011;47337;54.068;12.114;2024-03-02T09:08:34;54.33;;;25.83;;
61471;SDS011;47337;54.068;12.114;2024-03-02T09:11:01;57.42;;;26.15;;
61471;SDS011;47337;54.068;12.114;2024-03-02T09:13:26;52.95;;;25.60;;
61471;SDS011;47337;54.068;12.114;2024-03-02T09:15:52;50.88;;;24.95;;
61471;SDS011;47337;54.068;12.114;2024-03-02T09:18:17;57.13;;;25.80;;
61471;SDS011;47337;54.068;12.114;2024-03-02T09:20:42;56.00;;;25.13;;
61471;SDS011;47337;54.068;12.114;2024-03-02T09:23:08;56.80;;;24.67;;
61471;SDS011;47337;54.068;12.114;2024-03-02T09:25:33;57.55;;;25.25;;
61471;SDS011;47337;54.068;12.114;2024-03-02T09:28:04;56.80;;;26.65;;
61471;SDS011;47337;54.068;12.114;2024-03-02T09:30:29;51.50;;;25.90;;
61471;SDS011;47337;54.068;12.114;2024-03-02T09:32:54;58.75;;;26.08;;
61471;SDS011;47337;54.068;12.114;2024-03-02T09:35:19;57.08;;;25.90;;
61471;SDS011;47337;54.068;12.114;2024-03-02T09:37:45;59.50;;;26.23;;
61471;SDS011;47337;54.068;12.114;2024-03-02T09:40:10;53.42;;;25.98;;
61471;SDS011;47337;54.068;12.114;2024-03-02T09:42:36;58.10;;;26.65;;
61471;SDS011;47337;54.068;12.114;2024-03-02T09:45:01;62.67;;;27.15;;
61471;SDS011;47337;54.068;12.114;2024-03-02T09:47:26;58.85;;;26.73;;
61471;SDS011;47337;54.068;12.114;2024-03-02T09:49:52;59.85;;;26.45;;
61471;SDS011;47337;54.068;12.114;2024-03-02T09:52:19;54.15;;;26.98;;
61471;SDS011;47337;54.068;12.114;2024-03-02T09:54:47;60.70;;;28.27;;
61471;SDS011;47337;54.068;12.114;2024-03-02T09:57:14;57.53;;;26.60;;
61471;SDS011;47337;54.068;12.114;2024-03-02T09:59:40;59.95;;;26.58;;
61471;SDS011;47337;54.068;12.114;2024-03-02T10:02:05;58.45;;;26.80;;
61471;SDS011;47337;54.068;12.114;2024-03-02T10:04:32;61.70;;;27.17;;
61471;SDS011;47337;54.068;12.114;2024-03-02T10:09:36;59.03;;;27.73;;
61471;SDS011;47337;54.068;12.114;2024-03-02T10:12:04;60.20;;;26.70;;
61471;SDS011;47337;54.068;12.114;2024-03-02T10:14:30;60.95;;;27.75;;
61471;SDS011;47337;54.068;12.114;2024-03-02T10:16:55;58.00;;;28.00;;
61471;SDS011;47337;54.068;12.114;2024-03-02T10:19:26;60.85;;;28.83;;
61471;SDS011;47337;54.068;12.114;2024-03-02T10:21:53;55.92;;;27.27;;
61471;SDS011;47337;54.068;12.114;2024-03-02T10:24:21;56.85;;;26.63;;
61471;SDS011;47337;54.068;12.114;2024-03-02T10:26:46;59.92;;;26.83;;
61471;SDS011;47337;54.068;12.114;2024-03-02T10:29:12;54.92;;;26.38;;
61471;SDS011;47337;54.068;12.114;2024-03-02T10:31:38;58.08;;;25.30;;
61471;SDS011;47337;54.068;12.114;2024-03-02T10:34:03;59.60;;;26.35;;
61471;SDS011;47337;54.068;12.114;2024-03-02T10:36:31;57.13;;;27.60;;
61471;SDS011;47337;54.068;12.114;2024-03-02T10:38:57;60.55;;;27.40;;
61471;SDS011;47337;54.068;12.114;2024-03-02T10:41:28;61.40;;;27.38;;
61471;SDS011;47337;54.068;12.114;2024-03-02T10:43:54;58.60;;;27.50;;
61471;SDS011;47337;54.068;12.114;2024-03-02T10:46:27;59.08;;;26.45;;
61471;SDS011;47337;54.068;12.114;2024-03-02T10:48:54;58.40;;;27.83;;
61471;SDS011;47337;54.068;12.114;2024-03-02T10:51:19;60.67;;;27.67;;
61471;SDS011;47337;54.068;12.114;2024-03-02T10:53:44;60.10;;;28.10;;
61471;SDS011;47337;54.068;12.114;2024-03-02T10:56:09;53.60;;;26.05;;
61471;SDS011;47337;54.068;12.114;2024-03-02T10:58:35;53.83;;;27.23;;
61471;SDS011;47337;54.068;12.114;2024-03-02T11:01:04;59.50;;;26.33;;
61471;SDS011;47337;54.068;12.114;2024-03-02T11:03:31;55.88;;;26.33;;
61471;SDS011;47337;54.068;12.114;2024-03-02T11:05:58;61.40;;;27.73;;
61471;SDS011;47337;54.068;12.114;2024-03-02T11:08:24;52.95;;;25.98;;
61471;SDS011;47337;54.068;12.114;2024-03-02T11:10:52;59.65;;;27.48;;
61471;SDS011;47337;54.068;12.114;2024-03-02T11:13:22;56.90;;;27.95;;
61471;SDS011;47337;54.068;12.114;2024-03-02T11:15:50;58.97;;;27.10;;
61471;SDS011;47337;54.068;12.114;2024-03-02T11:18:19;61.03;;;27.58;;
61471;SDS011;47337;54.068;12.114;2024-03-02T11:20:44;51.90;;;25.58;;
61471;SDS011;47337;54.068;12.114;2024-03-02T11:23:11;53.63;;;25.85;;
61471;SDS011;47337;54.068;12.114;2024-03-02T11:25:36;56.22;;;27.08;;
61471;SDS011;47337;54.068;12.114;2024-03-02T11:28:06;58.03;;;26.50;;
61471;SDS011;47337;54.068;12.114;2024-03-02T11:35:25;55.00;;;26.27;;
61471;SDS011;47337;54.068;12.114;2024-03-02T11:37:51;53.65;;;24.67;;
61471;SDS011;47337;54.068;12.114;2024-03-02T11:40:21;52.92;;;24.75;;
61471;SDS011;47337;54.068;12.114;2024-03-02T11:42:46;51.60;;;26.45;;
61471;SDS011;47337;54.068;12.114;2024-03-02T11:45:12;50.72;;;25.42;;
61471;SDS011;47337;54.068;12.114;2024-03-02T11:47:37;52.05;;;24.63;;
61471;SDS011;47337;54.068;12.114;2024-03-02T11:50:02;52.47;;;24.52;;
61471;SDS011;47337;54.068;12.114;2024-03-02T11:52:31;50.63;;;23.95;;
61471;SDS011;47337;54.068;12.114;2024-03-02T11:54:58;47.85;;;24.17;;
61471;SDS011;47337;54.068;12.114;2024-03-02T11:57:23;48.10;;;23.17;;
61471;SDS011;47337;54.068;12.114;2024-03-02T11:59:49;47.80;;;24.88;;
61471;SDS011;47337;54.068;12.114;2024-03-02T12:02:21;49.75;;;23.80;;
61471;SDS011;47337;54.068;12.114;2024-03-02T12:04:47;46.97;;;22.80;;
61471;SDS011;47337;54.068;12.114;2024-03-02T12:07:22;46.20;;;23.73;;
61471;SDS011;47337;54.068;12.114;2024-03-02T12:09:48;48.47;;;23.25;;
61471;SDS011;47337;54.068;12.114;2024-03-02T12:12:13;48.15;;;24.05;;
61471;SDS011;47337;54.068;12.114;2024-03-02T12:14:49;47.40;;;23.65;;
61471;SDS011;47337;54.068;12.114;2024-03-02T12:17:14;46.20;;;22.77;;
61471;SDS011;47337;54.068;12.114;2024-03-02T12:19:40;46.97;;;23.45;;
61471;SDS011;47337;54.068;12.114;2024-03-02T12:22:07;49.65;;;24.13;;
61471;SDS011;47337;54.068;12.114;2024-03-02T12:24:32;43.00;;;22.67;;
61471;SDS011;47337;54.068;12.114;2024-03-02T12:27:00;47.67;;;23.25;;
61471;SDS011;47337;54.068;12.114;2024-03-02T12:29:25;45.20;;;22.65;;
61471;SDS011;47337;54.068;12.114;2024-03-02T12:31:51;39.60;;;21.33;;
61471;SDS011;47337;54.068;12.114;2024-03-02T12:34:20;40.47;;;21.45;;
61471;SDS011;47337;54.068;12.114;2024-03-02T12:36:46;43.58;;;21.83;;
61471;SDS011;47337;54.068;12.114;2024-03-02T12:39:14;44.35;;;22.63;;
61471;SDS011;47337;54.068;12.114;2024-03-02T12:41:40;46.05;;;22.35;;
61471;SDS011;47337;54.068;12.114;2024-03-02T12:44:08;43.40;;;21.83;;
61471;SDS011;47337;54.068;12.114;2024-03-02T12:46:33;48.00;;;21.73;;
61471;SDS011;47337;54.068;12.114;2024-03-02T12:49:04;44.30;;;21.80;;
61471;SDS011;47337;54.068;12.114;2024-03-02T12:51:34;40.28;;;20.50;;
61471;SDS011;47337;54.068;12.114;2024-03-02T12:54:00;42.45;;;21.77;;
61471;SDS011;47337;54.068;12.114;2024-03-02T12:56:26;41.22;;;21.67;;
61471;SDS011;47337;54.068;12.114;2024-03-02T12:58:55;42.35;;;21.92;;
61471;SDS011;47337;54.068;12.114;2024-03-02T13:01:20;44.05;;;20.58;;
61471;SDS011;47337;54.068;12.114;2024-03-02T13:03:48;39.20;;;21.50;;
61471;SDS011;47337;54.068;12.114;2024-03-02T13:06:13;40.70;;;21.20;;
61471;SDS011;47337;54.068;12.114;2024-03-02T13:08:38;37.38;;;19.92;;
61471;SDS011;47337;54.068;12.114;2024-03-02T13:11:06;39.72;;;20.60;;
61471;SDS011;47337;54.068;12.114;2024-03-02T13:13:32;39.17;;;20.48;;
61471;SDS011;47337;54.068;12.114;2024-03-02T13:15:57;36.67;;;19.50;;
61471;SDS011;47337;54.068;12.114;2024-03-02T13:18:23;39.75;;;20.25;;
61471;SDS011;47337;54.068;12.114;2024-03-02T13:20:48;39.88;;;19.75;;
61471;SDS011;47337;54.068;12.114;2024-03-02T13:23:13;39.72;;;19.90;;
61471;SDS011;47337;54.068;12.114;2024-03-02T13:25:39;40.85;;;20.00;;
61471;SDS011;47337;54.068;12.114;2024-03-02T13:28:04;38.65;;;18.95;;
61471;SDS011;47337;54.068;12.114;2024-03-02T13:30:30;36.78;;;18.17;;
61471;SDS011;47337;54.068;12.114;2024-03-02T13:32:55;35.70;;;18.27;;
61471;SDS011;47337;54.068;12.114;2024-03-02T13:35:20;35.83;;;19.27;;
61471;SDS011;47337;54.068;12.114;2024-03-02T13:37:48;38.50;;;19.33;;
61471;SDS011;47337;54.068;12.114;2024-03-02T13:40:15;32.92;;;18.15;;
61471;SDS011;47337;54.068;12.114;2024-03-02T13:42:44;36.25;;;17.73;;
61471;SDS011;47337;54.068;12.114;2024-03-02T13:45:11;31.25;;;17.80;;
61471;SDS011;47337;54.068;12.114;2024-03-02T13:47:36;32.15;;;17.55;;
61471;SDS011;47337;54.068;12.114;2024-03-02T13:50:01;33.47;;;17.58;;
61471;SDS011;47337;54.068;12.114;2024-03-02T13:52:30;36.22;;;18.15;;
61471;SDS011;47337;54.068;12.114;2024-03-02T13:54:55;30.10;;;17.42;;
61471;SDS011;47337;54.068;12.114;2024-03-02T13:57:20;32.75;;;18.25;;
61471;SDS011;47337;54.068;12.114;2024-03-02T13:59:46;34.22;;;17.95;;
61471;SDS011;47337;54.068;12.114;2024-03-02T14:02:11;28.83;;;16.98;;
61471;SDS011;47337;54.068;12.114;2024-03-02T14:04:39;35.42;;;17.60;;
61471;SDS011;47337;54.068;12.114;2024-03-02T14:07:05;32.58;;;18.08;;
61471;SDS011;47337;54.068;12.114;2024-03-02T14:09:33;32.83;;;17.88;;
61471;SDS011;47337;54.068;12.114;2024-03-02T14:11:58;30.17;;;16.67;;